Time;durP1;ratioP1;P1;durP2;ratioP2;P2;SDS_P1;SDS_P2;PMS_P1;PMS_P2;Temp;Humidity;BMP_temperature;BMP_pressure;BME280_temperature;BME280_humidity;BME280_pressure;Samples;Min_cycle;Max_cycle;Signal;HPM_P1;HPM_P2
2021/12/31 00:00:51;;;;;;;36.10;6.75;;;;;;;2.30;100.00;100598.25;6375063;27;21043;-87
2021/12/31 00:03:52;;;;;;;37.40;7.68;;;;;;;2.27;100.00;100583.72;6376035;27;20035;-86
2021/12/31 00:06:53;;;;;;;21.67;6.63;;;;;;;2.36;100.00;100582.69;6376770;27;20043;-80
2021/12/31 00:09:59;;;;;;;22.45;6.57;;;;;;;2.28;100.00;100564.78;6357973;27;20080;-80
2021/12/31 00:13:00;;;;;;;21.35;8.10;;;;;;;2.41;100.00;100578.31;6341489;27;20058;-80
2021/12/31 00:16:00;;;;;;;24.05;6.18;;;;;;;2.30;100.00;100581.06;6376373;27;20039;-80
2021/12/31 00:19:01;;;;;;;21.40;7.88;;;;;;;2.40;100.00;100572.28;6357886;27;20036;-79
2021/12/31 00:22:18;;;;;;;15.95;7.30;;;;;;;2.53;100.00;100587.50;6357887;27;20046;-78
2021/12/31 00:25:19;;;;;;;13.40;6.68;;;;;;;2.46;100.00;100586.78;6356111;27;20121;-79
2021/12/31 00:28:21;;;;;;;21.13;7.18;;;;;;;2.53;100.00;100584.94;6358508;27;20040;-86
2021/12/31 00:31:22;;;;;;;18.95;7.55;;;;;;;2.54;100.00;100584.06;6357991;27;20110;-86
2021/12/31 00:34:22;;;;;;;25.35;6.90;;;;;;;2.44;100.00;100583.38;6341161;27;20049;-86
2021/12/31 00:37:33;;;;;;;17.85;7.18;;;;;;;2.49;100.00;100581.59;6375047;27;20497;-86
2021/12/31 00:40:34;;;;;;;17.90;6.72;;;;;;;2.47;100.00;100578.19;6374747;27;20050;-86
2021/12/31 00:43:35;;;;;;;14.57;7.65;;;;;;;2.53;100.00;100572.06;6341796;27;20066;-86
2021/12/31 00:46:36;;;;;;;14.57;7.32;;;;;;;2.61;100.00;100567.59;6374655;27;20040;-85
2021/12/31 00:49:37;;;;;;;17.35;7.07;;;;;;;2.55;100.00;100578.91;6357348;27;20084;-79
2021/12/31 00:52:38;;;;;;;18.63;7.35;;;;;;;2.44;100.00;100579.97;6357330;27;20108;-79
2021/12/31 00:55:39;;;;;;;17.70;7.93;;;;;;;2.49;100.00;100578.16;6373431;27;20039;-79
2021/12/31 00:58:39;;;;;;;18.52;6.90;;;;;;;2.38;100.00;100575.78;6354833;27;20043;-80
2021/12/31 01:01:40;;;;;;;20.83;7.75;;;;;;;2.40;100.00;100577.44;6373908;27;20035;-79
2021/12/31 01:04:41;;;;;;;17.25;7.35;;;;;;;2.41;100.00;100571.44;6373819;27;20054;-86
2021/12/31 01:07:43;;;;;;;16.63;7.78;;;;;;;2.46;100.00;100561.03;6374999;27;20083;-87
2021/12/31 01:10:44;;;;;;;21.58;7.15;;;;;;;2.45;100.00;100554.19;6373737;27;20042;-85
2021/12/31 01:13:53;;;;;;;17.83;7.90;;;;;;;2.42;100.00;100555.06;6371803;27;20050;-86
2021/12/31 01:16:59;;;;;;;20.52;7.05;;;;;;;2.45;100.00;100561.94;6374237;27;20034;-85
2021/12/31 01:20:00;;;;;;;16.52;7.82;;;;;;;2.50;100.00;100561.81;6375035;27;20479;-86
2021/12/31 01:23:02;;;;;;;19.02;7.72;;;;;;;2.51;100.00;100561.81;6373281;27;20114;-87
2021/12/31 01:26:03;;;;;;;24.17;8.52;;;;;;;2.55;100.00;100568.59;6373714;27;20070;-86
2021/12/31 01:29:05;;;;;;;17.67;8.02;;;;;;;2.57;100.00;100559.09;6375095;27;20035;-87
2021/12/31 01:32:06;;;;;;;18.42;8.23;;;;;;;2.56;100.00;100553.97;6354621;27;20050;-86
2021/12/31 01:35:07;;;;;;;21.80;8.38;;;;;;;2.49;100.00;100563.56;6373103;27;20433;-80
2021/12/31 01:38:08;;;;;;;22.83;9.38;;;;;;;2.44;100.00;100556.78;6374073;27;20490;-87
2021/12/31 01:41:09;;;;;;;35.65;9.80;;;;;;;2.44;100.00;100567.09;6372644;27;20088;-89
2021/12/31 01:44:10;;;;;;;22.75;7.90;;;;;;;2.44;100.00;100575.66;6374186;27;20092;-86
2021/12/31 01:47:15;;;;;;;23.33;8.93;;;;;;;2.56;100.00;100582.31;6339172;27;20038;-87
2021/12/31 01:50:16;;;;;;;19.67;8.00;;;;;;;2.69;100.00;100577.75;6374936;27;20557;-86
2021/12/31 01:53:19;;;;;;;19.88;8.68;;;;;;;2.70;100.00;100603.50;6374456;27;20043;-79
2021/12/31 01:56:20;;;;;;;18.65;7.95;;;;;;;2.83;100.00;100609.25;6356597;27;20043;-86
2021/12/31 01:59:22;;;;;;;17.90;7.57;;;;;;;2.86;100.00;100608.34;6339211;27;20073;-86
2021/12/31 02:02:23;;;;;;;18.30;7.53;;;;;;;2.78;100.00;100614.50;6373583;27;20059;-87
2021/12/31 02:05:24;;;;;;;17.92;7.45;;;;;;;2.81;100.00;100603.28;6373685;27;20039;-87
2021/12/31 02:08:25;;;;;;;16.13;7.38;;;;;;;2.86;100.00;100590.28;6356301;27;20236;-86
2021/12/31 02:11:25;;;;;;;13.30;6.38;;;;;;;2.90;100.00;100589.34;6372974;27;20107;-86
2021/12/31 02:14:28;;;;;;;20.50;8.00;;;;;;;2.87;100.00;100587.69;6355872;27;20401;-87
2021/12/31 02:17:28;;;;;;;18.25;8.25;;;;;;;2.76;100.00;100587.91;6373607;27;20123;-86
2021/12/31 02:20:43;;;;;;;13.15;6.63;;;;;;;2.88;100.00;100576.50;6355561;27;20035;-79
2021/12/31 02:23:46;;;;;;;17.13;7.70;;;;;;;2.88;100.00;100575.66;6372664;27;20038;-79
2021/12/31 02:26:48;;;;;;;16.33;7.65;;;;;;;2.81;100.00;100572.34;6355600;27;20049;-79
2021/12/31 02:29:48;;;;;;;17.48;7.18;;;;;;;2.85;100.00;100563.69;6373629;27;20039;-79
2021/12/31 02:32:49;;;;;;;15.07;7.30;;;;;;;2.78;100.00;100570.69;6355178;27;20111;-79
2021/12/31 02:35:50;;;;;;;16.23;7.93;;;;;;;2.84;100.00;100569.69;6373303;27;20048;-80
2021/12/31 02:38:51;;;;;;;16.92;8.10;;;;;;;2.87;100.00;100561.06;6372061;27;20384;-80
2021/12/31 02:41:51;;;;;;;17.48;7.80;;;;;;;2.95;100.00;100564.34;6372067;27;20375;-80
2021/12/31 02:44:55;;;;;;;14.77;7.00;;;;;;;2.84;100.00;100567.13;6372315;27;20486;-80
2021/12/31 02:47:57;;;;;;;14.98;7.53;;;;;;;2.83;100.00;100555.13;6372043;27;20047;-80
2021/12/31 02:51:00;;;;;;;20.17;8.48;;;;;;;2.82;100.00;100561.16;6373290;27;20043;-87
2021/12/31 02:54:05;;;;;;;24.08;9.80;;;;;;;2.98;100.00;100556.53;6372113;27;20407;-80
2021/12/31 02:57:06;;;;;;;38.55;10.73;;;;;;;2.79;100.00;100556.91;6371760;27;20046;-80
2021/12/31 03:00:08;;;;;;;21.23;9.45;;;;;;;2.92;100.00;100561.81;6354645;27;20039;-80
2021/12/31 03:03:12;;;;;;;25.15;8.18;;;;;;;2.95;100.00;100559.19;6354594;27;20043;-80
2021/12/31 03:06:15;;;;;;;32.65;7.32;;;;;;;2.94;100.00;100550.56;6372737;27;20116;-80
2021/12/31 03:09:18;;;;;;;;;;;;;;;2.99;100.00;100560.81;6372526;27;20047;-80
2021/12/31 03:12:19;;;;;;;27.02;8.07;;;;;;;2.92;100.00;100559.22;6354687;27;19945;-80
2021/12/31 03:15:22;;;;;;;31.80;13.55;;;;;;;2.77;100.00;100556.09;6354572;27;20506;-86
2021/12/31 03:18:22;;;;;;;30.90;10.63;;;;;;;3.02;100.00;100559.00;6338148;27;20051;-87
2021/12/31 03:21:25;;;;;;;42.28;7.45;;;;;;;2.95;100.00;100551.44;6372815;27;20051;-87
2021/12/31 03:24:25;;;;;;;30.88;7.13;;;;;;;2.94;100.00;100554.91;6337841;27;20490;-87
2021/12/31 03:27:26;;;;;;;41.05;7.40;;;;;;;2.91;100.00;100558.41;6372722;27;20043;-87
2021/12/31 03:30:27;;;;;;;36.72;8.02;;;;;;;2.99;100.00;100556.50;6371512;27;20035;-87
2021/12/31 03:33:28;;;;;;;71.68;8.25;;;;;;;3.01;100.00;100553.91;6372265;27;20042;-80
2021/12/31 03:36:29;;;;;;;67.13;7.28;;;;;;;2.96;100.00;100553.97;6372281;27;20096;-80
2021/12/31 03:39:30;;;;;;;77.78;7.75;;;;;;;2.92;100.00;100542.03;6354011;27;20043;-80
2021/12/31 03:42:31;;;;;;;89.70;8.07;;;;;;;2.98;100.00;100548.78;6337013;27;20122;-80
2021/12/31 03:45:32;;;;;;;126.33;9.50;;;;;;;3.05;100.00;100549.50;6372034;27;20043;-80
2021/12/31 03:48:33;;;;;;;104.65;8.25;;;;;;;3.00;100.00;100539.28;6371357;27;20084;-86
2021/12/31 03:51:34;;;;;;;131.25;10.25;;;;;;;2.96;100.00;100547.97;6372503;27;20510;-87
2021/12/31 03:54:35;;;;;;;110.28;8.40;;;;;;;2.99;100.00;100537.63;6372011;28;20046;-86
2021/12/31 03:57:37;;;;;;;73.75;7.75;;;;;;;2.92;100.00;100528.31;6354356;28;20567;-87
2021/12/31 04:00:38;;;;;;;135.30;9.57;;;;;;;3.00;100.00;100529.81;6371231;28;20070;-86
2021/12/31 04:03:39;;;;;;;115.20;9.10;;;;;;;2.95;100.00;100516.19;6371217;28;20043;-87
2021/12/31 04:06:40;;;;;;;124.60;9.48;;;;;;;3.00;100.00;100526.41;6371383;28;20042;-87
2021/12/31 04:09:41;;;;;;;145.80;9.98;;;;;;;2.99;100.00;100517.00;6372736;28;20042;-79
2021/12/31 04:12:42;;;;;;;109.35;7.97;;;;;;;3.00;100.00;100524.66;6353072;28;20047;-79
2021/12/31 04:15:43;;;;;;;147.07;9.93;;;;;;;3.12;100.00;100522.72;6353334;28;20066;-79
2021/12/31 04:18:44;;;;;;;138.88;10.75;;;;;;;2.99;100.00;100522.16;6371561;27;20047;-79
2021/12/31 04:21:44;;;;;;;105.00;9.80;;;;;;;3.11;100.00;100510.69;6370469;28;20542;-80
2021/12/31 04:27:46;;;;;;;99.57;9.02;;;;;;;3.10;100.00;100520.16;6370185;28;20050;-80
2021/12/31 04:30:47;;;;;;;173.95;10.60;;;;;;;3.14;100.00;100524.38;6353203;28;20043;-80
2021/12/31 04:33:47;;;;;;;143.93;10.07;;;;;;;3.12;100.00;100517.56;6370520;28;20042;-80
2021/12/31 04:36:48;;;;;;;112.13;10.05;;;;;;;3.14;100.00;100506.31;6370264;28;20035;-86
2021/12/31 04:39:49;;;;;;;156.57;11.95;;;;;;;3.15;100.00;100525.19;6371560;27;20048;-86
2021/12/31 04:42:50;;;;;;;144.07;11.80;;;;;;;3.10;100.00;100527.91;6357240;27;20039;-87
2021/12/31 04:45:51;;;;;;;136.48;11.55;;;;;;;3.18;100.00;100522.56;6358229;27;20068;-86
2021/12/31 04:48:52;;;;;;;71.35;9.95;;;;;;;3.16;100.00;100514.88;6358075;27;20042;-86
2021/12/31 04:51:53;;;;;;;130.02;9.75;;;;;;;3.13;100.00;100519.22;6358306;27;20039;-86
2021/12/31 04:54:53;;;;;;;121.32;12.23;;;;;;;3.17;100.00;100518.28;6375228;27;20051;-87
2021/12/31 04:57:54;;;;;;;135.18;10.98;;;;;;;3.12;100.00;100514.97;6375259;27;20452;-87
2021/12/31 05:00:55;;;;;;;146.75;11.27;;;;;;;3.22;100.00;100511.31;6375980;27;20043;-86
2021/12/31 05:03:55;;;;;;;171.07;12.13;;;;;;;3.23;100.00;100495.81;6374798;27;20050;-87
2021/12/31 05:06:57;;;;;;;138.77;12.93;;;;;;;3.08;100.00;100479.84;6340505;27;20053;-86
2021/12/31 05:09:57;;;;;;;162.88;12.57;;;;;;;3.22;100.00;100482.94;6374867;27;20035;-88
2021/12/31 05:13:00;;;;;;;172.70;10.80;;;;;;;3.21;100.00;100482.09;6374311;27;20051;-86
2021/12/31 05:16:03;;;;;;;;;;;;;;;3.20;100.00;100495.00;6376018;27;20471;-87
2021/12/31 05:19:05;;;;;;;183.18;10.40;;;;;;;3.26;100.00;100505.19;6375555;27;19926;-86
2021/12/31 05:22:06;;;;;;;191.00;11.80;;;;;;;3.34;100.00;100510.19;6374192;27;20082;-86
2021/12/31 05:25:07;;;;;;;176.25;12.05;;;;;;;3.26;100.00;100504.34;6374223;27;20039;-86
2021/12/31 05:28:08;;;;;;;178.45;12.02;;;;;;;3.29;100.00;100515.41;6357003;27;20043;-86
2021/12/31 05:31:09;;;;;;;95.82;10.48;;;;;;;3.34;100.00;100518.75;6375247;27;20068;-87
2021/12/31 05:34:10;;;;;;;183.57;13.13;;;;;;;3.35;100.00;100525.59;6373597;27;20046;-86
2021/12/31 05:37:11;;;;;;;172.82;12.23;;;;;;;3.43;100.00;100540.91;6340053;27;20451;-87
2021/12/31 05:40:12;;;;;;;163.25;13.23;;;;;;;3.39;100.00;100527.22;6339782;27;20043;-86
2021/12/31 05:43:13;;;;;;;127.90;12.57;;;;;;;3.35;100.00;100532.50;6339504;27;20139;-86
2021/12/31 05:46:14;;;;;;;267.33;16.60;;;;;;;3.38;100.00;100538.44;6375332;27;20039;-86
2021/12/31 05:49:15;;;;;;;179.15;13.25;;;;;;;3.45;100.00;100548.59;6356675;27;20126;-86
2021/12/31 05:52:16;;;;;;;197.23;12.93;;;;;;;3.36;100.00;100537.63;6372467;27;20050;-85
2021/12/31 05:55:17;;;;;;;246.77;12.85;;;;;;;3.50;100.00;100545.03;6356256;27;20039;-85
2021/12/31 05:58:18;;;;;;;231.35;15.40;;;;;;;3.49;100.00;100540.75;6373440;27;20036;-86
2021/12/31 06:01:19;;;;;;;205.45;14.60;;;;;;;3.35;100.00;100545.38;6374699;27;20065;-80
2021/12/31 06:04:19;;;;;;;216.95;14.82;;;;;;;3.47;100.00;100547.69;6374513;27;20043;-80
2021/12/31 06:07:20;;;;;;;222.75;14.98;;;;;;;3.55;100.00;100535.44;6374129;27;20122;-80
2021/12/31 06:10:22;;;;;;;296.98;16.42;;;;;;;3.51;100.00;100544.13;6356010;27;20035;-80
2021/12/31 06:13:23;;;;;;;331.90;19.90;;;;;;;3.47;100.00;100544.25;6372555;27;20088;-80
2021/12/31 06:16:24;;;;;;;278.75;21.63;;;;;;;3.54;100.00;100543.22;6355685;27;20271;-80
2021/12/31 06:19:25;;;;;;;256.08;17.52;;;;;;;3.47;100.00;100558.00;6372719;27;20043;-80
2021/12/31 06:22:26;;;;;;;186.38;15.20;;;;;;;3.40;100.00;100556.47;6372626;27;20099;-80
2021/12/31 06:25:27;;;;;;;273.70;21.35;;;;;;;3.48;100.00;100564.00;6372450;27;20047;-80
2021/12/31 06:28:28;;;;;;;304.17;19.27;;;;;;;3.48;100.00;100567.44;6355379;27;20039;-85
2021/12/31 06:31:30;;;;;;;318.00;19.85;;;;;;;3.53;100.00;100565.59;6372419;27;20070;-86
2021/12/31 06:34:30;;;;;;;279.77;19.67;;;;;;;3.51;100.00;100569.09;6355272;27;20043;-85
2021/12/31 06:37:37;;;;;;;326.58;21.60;;;;;;;3.57;100.00;100566.38;6372469;27;20388;-85
2021/12/31 06:40:38;;;;;;;333.55;20.17;;;;;;;3.59;100.00;100564.59;6372276;27;20107;-86
2021/12/31 06:43:40;;;;;;;313.40;18.97;;;;;;;3.52;100.00;100553.59;6355372;27;20043;-86
2021/12/31 06:46:40;;;;;;;323.88;19.98;;;;;;;3.37;100.00;100556.53;6373713;27;20459;-85
2021/12/31 06:49:42;;;;;;;275.40;18.55;;;;;;;3.38;100.00;100561.66;6372873;27;20035;-85
2021/12/31 06:52:43;;;;;;;322.13;20.67;;;;;;;3.53;100.00;100565.59;6372575;27;20046;-85
2021/12/31 06:55:44;;;;;;;305.35;18.38;;;;;;;3.54;100.00;100569.88;6371680;27;20043;-86
2021/12/31 06:58:45;;;;;;;310.98;19.42;;;;;;;3.61;100.00;100574.00;6371774;27;20046;-85
2021/12/31 07:01:46;;;;;;;430.08;24.23;;;;;;;3.71;100.00;100576.38;6371661;27;20072;-85
2021/12/31 07:04:46;;;;;;;313.67;20.42;;;;;;;3.68;100.00;100571.28;6371273;27;20092;-85
2021/12/31 07:07:47;;;;;;;288.10;19.73;;;;;;;3.59;100.00;100570.59;6337551;27;20055;-80
2021/12/31 07:10:48;;;;;;;354.30;22.42;;;;;;;3.67;100.00;100592.81;6371351;27;20040;-80
2021/12/31 07:13:50;;;;;;;327.42;21.17;;;;;;;3.66;100.00;100591.09;6371156;27;20550;-80
2021/12/31 07:16:51;;;;;;;397.63;23.92;;;;;;;3.73;100.00;100588.34;6371310;27;20067;-80
2021/12/31 07:19:51;;;;;;;398.23;23.63;;;;;;;3.79;100.00;100579.63;6371295;27;20039;-80
2021/12/31 07:22:52;;;;;;;387.40;23.27;;;;;;;3.74;100.00;100581.44;6337147;27;20131;-80
2021/12/31 07:25:53;;;;;;;249.73;21.00;;;;;;;3.75;100.00;100584.00;6353996;27;20039;-80
2021/12/31 07:28:54;;;;;;;396.02;26.52;;;;;;;3.87;100.00;100585.44;6372214;27;20043;-80
2021/12/31 07:31:54;;;;;;;400.23;25.15;;;;;;;3.86;100.00;100575.97;6353954;27;20051;-80
2021/12/31 07:34:55;;;;;;;421.52;30.15;;;;;;;3.93;100.00;100576.66;6353830;27;20063;-80
2021/12/31 07:37:57;;;;;;;370.23;22.75;;;;;;;3.90;100.00;100579.34;6371299;27;20043;-80
2021/12/31 07:40:58;;;;;;;349.98;29.80;;;;;;;3.89;100.00;100586.25;6371988;27;20118;-80
2021/12/31 07:43:59;;;;;;;458.20;44.03;;;;;;;4.00;100.00;100593.72;6336842;27;20057;-80
2021/12/31 07:46:59;;;;;;;384.27;28.90;;;;;;;4.07;100.00;100594.41;6353795;27;20071;-80
2021/12/31 07:50:00;;;;;;;361.50;23.35;;;;;;;4.01;100.00;100593.66;6370780;27;20047;-80
2021/12/31 07:53:01;;;;;;;397.85;25.40;;;;;;;4.15;100.00;100595.06;6372086;27;20039;-80
2021/12/31 07:56:02;;;;;;;414.92;26.48;;;;;;;4.11;100.00;100596.03;6371802;27;20121;-80
2021/12/31 07:59:04;;;;;;;407.17;26.10;;;;;;;4.09;100.00;100602.97;6371959;27;20039;-80
2021/12/31 08:02:05;;;;;;;447.15;26.30;;;;;;;4.18;100.00;100592.38;6353618;28;20059;-80
2021/12/31 08:05:07;;;;;;;382.75;27.08;;;;;;;4.22;100.00;100592.28;6371738;27;20062;-80
2021/12/31 08:08:08;;;;;;;380.63;26.38;;;;;;;4.02;100.00;100576.44;6371732;27;20380;-80
2021/12/31 08:11:09;;;;;;;415.23;27.33;;;;;;;4.08;100.00;100586.63;6353327;28;20537;-80
2021/12/31 08:14:10;;;;;;;405.90;29.45;;;;;;;4.19;100.00;100587.19;6371628;27;20039;-80
2021/12/31 08:17:11;;;;;;;383.80;26.98;;;;;;;4.20;100.00;100575.09;6356745;27;20055;-80
2021/12/31 08:20:12;;;;;;;495.83;30.77;;;;;;;4.16;100.00;100573.50;6376098;27;20070;-85
2021/12/31 08:23:13;;;;;;;425.92;27.45;;;;;;;4.21;100.00;100589.72;6359060;27;20070;-86
2021/12/31 08:26:14;;;;;;;419.40;29.52;;;;;;;4.30;100.00;100586.88;6376771;27;20084;-85
2021/12/31 08:29:15;;;;;;;442.25;28.52;;;;;;;4.33;100.00;100580.81;6376733;27;20039;-85
2021/12/31 08:32:16;;;;;;;383.27;27.70;;;;;;;4.34;100.00;100579.91;6375379;27;20035;-84
2021/12/31 08:35:17;;;;;;;420.58;28.50;;;;;;;4.43;100.00;100584.84;6376286;27;20070;-85
2021/12/31 08:38:18;;;;;;;378.33;27.35;;;;;;;4.38;100.00;100591.88;6358339;27;20471;-85
2021/12/31 08:41:19;;;;;;;442.05;30.45;;;;;;;4.29;100.00;100585.22;6358418;27;20046;-85
2021/12/31 08:44:20;;;;;;;418.05;34.60;;;;;;;4.35;100.00;100590.22;6374890;27;20041;-80
2021/12/31 08:47:21;;;;;;;418.83;33.35;;;;;;;4.41;100.00;100584.88;6375896;27;20088;-85
2021/12/31 08:50:22;;;;;;;492.33;33.60;;;;;;;4.39;100.00;100591.81;6376114;27;20061;-86
2021/12/31 08:53:23;;;;;;;518.67;34.53;;;;;;;4.56;100.00;100582.78;6375243;27;20491;-85
2021/12/31 08:56:23;;;;;;;397.42;31.02;;;;;;;4.53;100.00;100585.44;6340711;27;20043;-85
2021/12/31 08:59:24;;;;;;;262.33;30.58;;;;;;;4.49;100.00;100599.31;6374311;27;20037;-85
2021/12/31 09:02:25;;;;;;;346.35;35.35;;;;;;;4.48;100.00;100600.22;6373815;27;20509;-86
2021/12/31 09:05:27;;;;;;;348.65;34.65;;;;;;;4.44;100.00;100602.03;6375285;27;20046;-80
2021/12/31 09:08:28;;;;;;;279.45;32.97;;;;;;;4.55;100.00;100593.97;6374170;27;20043;-80
2021/12/31 09:11:30;;;;;;;298.35;31.17;;;;;;;4.64;100.00;100597.16;6357001;27;20076;-84
2021/12/31 09:14:30;;;;;;;351.77;33.42;;;;;;;4.63;100.00;100600.66;6374753;27;20406;-84
2021/12/31 09:17:31;;;;;;;332.33;34.10;;;;;;;4.66;100.00;100599.72;6375543;27;20114;-85
2021/12/31 09:20:32;;;;;;;343.85;32.00;;;;;;;4.72;100.00;100616.81;6355943;27;20046;-84
2021/12/31 09:23:33;;;;;;;485.85;38.00;;;;;;;4.78;100.00;100611.47;6373469;27;20043;-80
2021/12/31 09:26:34;;;;;;;298.33;34.42;;;;;;;4.74;100.00;100617.63;6373647;27;20077;-80
2021/12/31 09:29:35;;;;;;;362.70;36.50;;;;;;;4.79;100.00;100603.63;6374940;27;20062;-84
2021/12/31 09:32:36;;;;;;;361.60;34.42;;;;;;;4.87;100.00;100600.84;6356733;27;20046;-80
2021/12/31 09:35:37;;;;;;;294.95;33.65;;;;;;;4.88;100.00;100606.84;6374815;27;20051;-85
2021/12/31 09:38:38;;;;;;;292.27;38.58;;;;;;;4.91;100.00;100586.09;6356578;27;20197;-80
2021/12/31 09:41:38;;;;;;;283.95;54.85;;;;;;;4.83;100.00;100587.16;6339597;27;20035;-85
2021/12/31 09:44:40;;;;;;;359.63;68.68;;;;;;;4.83;100.00;100575.97;6356490;27;20047;-84
2021/12/31 09:47:42;;;;;;;258.95;45.95;;;;;;;4.89;100.00;100568.03;6374684;27;20039;-80
2021/12/31 09:50:46;;;;;;;289.88;60.45;;;;;;;4.90;100.00;100568.88;6373421;27;20491;-80
2021/12/31 09:53:47;;;;;;;205.95;38.85;;;;;;;4.98;100.00;100578.13;6374390;27;20043;-85
2021/12/31 09:56:49;;;;;;;207.90;36.03;;;;;;;4.94;100.00;100571.34;6374509;27;20043;-84
2021/12/31 09:59:50;;;;;;;239.10;38.65;;;;;;;4.92;100.00;100575.72;6373345;27;20063;-85
2021/12/31 10:03:11;;;;;;;153.68;34.00;;;;;;;4.97;100.00;100571.25;6335866;27;20049;-85
2021/12/31 10:06:14;;;;;;;154.25;33.28;;;;;;;5.00;100.00;100576.34;6371627;27;20104;-80
2021/12/31 10:09:14;;;;;;;;;;;;;;;5.03;100.00;100580.56;6374670;27;20062;-80
2021/12/31 10:12:15;;;;;;;122.40;30.52;;;;;;;5.01;100.00;100575.44;6374438;27;19973;-80
2021/12/31 10:15:18;;;;;;;138.70;34.13;;;;;;;5.05;100.00;100576.19;6372847;27;20122;-80
2021/12/31 10:18:19;;;;;;;112.55;32.70;;;;;;;5.12;100.00;100571.69;6373208;27;20042;-80
2021/12/31 10:21:38;;;;;;;140.50;39.67;;;;;;;5.03;100.00;100565.88;6374257;27;20473;-79
2021/12/31 10:24:40;;;;;;;118.68;36.70;;;;;;;5.11;100.00;100560.50;6374484;27;20050;-83
2021/12/31 10:27:40;;;;;;;119.00;36.45;;;;;;;5.08;100.00;100555.41;6373884;27;20047;-84
2021/12/31 10:30:43;;;;;;;132.80;35.90;;;;;;;5.15;100.00;100543.13;6374390;27;20039;-84
2021/12/31 10:33:46;;;;;;;111.25;34.53;;;;;;;5.19;100.00;100531.81;6355637;27;20031;-80
2021/12/31 10:36:47;;;;;;;144.73;35.30;;;;;;;5.23;100.00;100523.06;6372667;27;20039;-80
2021/12/31 10:40:01;;;;;;;154.32;35.15;;;;;;;5.23;100.00;100521.31;6337937;27;20043;-80
2021/12/31 10:43:12;;;;;;;115.78;35.40;;;;;;;5.29;100.00;100528.00;6372550;27;20039;-80
2021/12/31 10:46:16;;;;;;;114.55;36.83;;;;;;;5.29;100.00;100540.94;6371174;27;20051;-84
2021/12/31 10:49:17;;;;;;;136.88;40.60;;;;;;;5.42;100.00;100547.44;6370140;27;20050;-84
2021/12/31 10:52:28;;;;;;;133.80;38.38;;;;;;;5.37;100.00;100546.72;6354930;27;20036;-84
2021/12/31 10:55:30;;;;;;;136.10;37.55;;;;;;;5.38;100.00;100558.78;6355365;27;20040;-84
2021/12/31 10:58:32;;;;;;;121.78;34.92;;;;;;;5.41;100.00;100558.66;6371656;27;20041;-84
2021/12/31 11:01:32;;;;;;;105.30;36.25;;;;;;;5.44;100.00;100558.59;6372765;27;20487;-84
2021/12/31 11:04:34;;;;;;;147.55;36.45;;;;;;;5.48;100.00;100558.47;6371760;27;20050;-80
2021/12/31 11:07:37;;;;;;;133.82;37.72;;;;;;;5.54;100.00;100551.38;6372655;27;20046;-85
2021/12/31 11:10:39;;;;;;;158.93;45.75;;;;;;;5.54;100.00;100558.28;6372907;27;20070;-84
2021/12/31 11:13:40;;;;;;;163.07;44.22;;;;;;;5.53;100.00;100547.09;6371445;27;20047;-80
2021/12/31 11:16:41;;;;;;;161.73;41.40;;;;;;;5.56;100.00;100534.06;6367962;27;20050;-80
2021/12/31 11:19:44;;;;;;;181.98;43.80;;;;;;;5.63;100.00;100542.47;6370078;27;20039;-80
2021/12/31 11:22:44;;;;;;;;;;;;;;;5.56;100.00;100539.25;6371228;27;20115;-80
2021/12/31 11:25:54;;;;;;;189.50;42.65;;;;;;;5.61;100.00;100531.31;6371521;27;20393;-80
2021/12/31 11:29:14;;;;;;;133.57;38.17;;;;;;;5.66;100.00;100521.63;6372974;27;20384;-80
2021/12/31 11:32:15;;;;;;;125.45;38.80;;;;;;;5.66;100.00;100532.00;6351701;27;20070;-84
2021/12/31 11:35:36;;;;;;;122.65;38.95;;;;;;;5.70;100.00;100533.59;6349697;27;20048;-84
2021/12/31 11:38:41;;;;;;;177.50;61.80;;;;;;;5.78;100.00;100526.41;6371782;27;20516;-85
2021/12/31 11:41:44;;;;;;;169.13;63.25;;;;;;;5.73;100.00;100524.91;6370744;27;20035;-85
2021/12/31 11:45:13;;;;;;;;;;;;;;;5.82;100.00;100545.28;6369417;27;20045;-84
2021/12/31 11:48:49;;;;;;;121.47;36.85;;;;;;;5.88;100.00;100533.88;6369616;27;19972;-80
2021/12/31 11:52:12;;;;;;;117.85;37.70;;;;;;;5.92;100.00;100533.72;6371124;27;20047;-80
2021/12/31 11:55:20;;;;;;;121.90;41.30;;;;;;;5.97;100.00;100523.22;6372768;27;20519;-79
2021/12/31 11:58:39;;;;;;;145.93;46.58;;;;;;;6.02;100.00;100519.59;6354205;28;20046;-80
2021/12/31 12:01:52;;;;;;;161.35;41.13;;;;;;;5.97;100.00;100520.63;6354003;28;20692;-83
2021/12/31 12:04:58;;;;;;;148.73;41.58;;;;;;;6.05;100.00;100513.44;6371288;28;20050;-83
2021/12/31 12:07:59;;;;;;;153.93;46.38;;;;;;;6.02;100.00;100495.44;6372390;28;20410;-83
2021/12/31 12:11:00;;;;;;;182.05;45.40;;;;;;;6.10;100.00;100493.41;6353703;28;20054;-83
2021/12/31 12:14:27;;;;;;;156.63;37.95;;;;;;;6.03;100.00;100491.94;6370697;28;20114;-83
2021/12/31 12:17:28;;;;;;;132.27;37.03;;;;;;;6.09;100.00;100496.91;6354061;28;20058;-83
2021/12/31 12:20:37;;;;;;;182.82;39.20;;;;;;;6.11;100.00;100476.97;6372204;27;20479;-83
2021/12/31 12:23:39;;;;;;;169.48;37.50;;;;;;;6.14;100.00;100483.81;6371204;28;20050;-83
2021/12/31 12:26:40;;;;;;;185.02;40.15;;;;;;;6.18;100.00;100485.38;6370975;28;20040;-84
2021/12/31 12:29:41;;;;;;;242.98;40.53;;;;;;;6.24;100.00;100490.34;6336780;28;20051;-79
2021/12/31 12:35:49;;;;;;;230.45;39.65;;;;;;;6.25;100.00;100484.25;6371703;27;20043;-84
2021/12/31 12:39:00;;;;;;;280.42;43.40;;;;;;;6.27;100.00;100486.78;6370650;27;20048;-84
2021/12/31 12:42:01;;;;;;;280.38;41.47;;;;;;;6.25;100.00;100505.81;6369617;28;20039;-84
2021/12/31 12:45:07;;;;;;;308.83;42.00;;;;;;;6.24;100.00;100508.47;6370995;27;20092;-84
2021/12/31 12:48:09;;;;;;;350.45;41.90;;;;;;;6.24;100.00;100496.38;6370483;28;20445;-84
2021/12/31 12:51:11;;;;;;;452.75;45.83;;;;;;;6.22;100.00;100489.56;6369876;28;20053;-80
2021/12/31 12:54:19;;;;;;;263.30;47.13;;;;;;;6.28;100.00;100493.66;6369049;28;20051;-81
2021/12/31 12:57:25;;;;;;;357.75;46.42;;;;;;;6.18;100.00;100478.44;6369635;28;20126;-80
2021/12/31 13:00:44;;;;;;;375.02;43.80;;;;;;;6.22;100.00;100487.81;6370536;27;20486;-80
2021/12/31 13:03:46;;;;;;;459.10;57.00;;;;;;;6.25;100.00;100476.47;6373169;27;20502;-80
2021/12/31 13:07:10;;;;;;;432.00;68.60;;;;;;;6.27;100.00;100485.03;6373771;27;20050;-83
2021/12/31 13:10:13;;;;;;;354.45;60.85;;;;;;;6.31;100.00;100486.63;6374192;27;20039;-80
2021/12/31 13:13:14;;;;;;;385.27;57.00;;;;;;;6.31;100.00;100475.41;6357038;27;20072;-80
2021/12/31 13:16:15;;;;;;;360.10;55.35;;;;;;;6.29;100.00;100474.63;6356576;27;20059;-80
2021/12/31 13:19:16;;;;;;;510.80;58.65;;;;;;;6.33;100.00;100483.97;6355073;27;20100;-80
2021/12/31 13:22:17;;;;;;;399.98;41.55;;;;;;;6.36;100.00;100489.91;6354973;27;20073;-80
2021/12/31 13:25:18;;;;;;;509.42;49.95;;;;;;;6.37;100.00;100491.56;6356419;27;20121;-80
2021/12/31 13:28:23;;;;;;;539.40;50.63;;;;;;;6.34;100.00;100493.44;6356877;27;20050;-83
2021/12/31 13:31:30;;;;;;;482.00;57.47;;;;;;;6.39;100.00;100481.16;6373405;27;20479;-84
2021/12/31 13:34:39;;;;;;;537.88;56.65;;;;;;;6.41;100.00;100485.38;6375173;27;20035;-82
2021/12/31 13:37:42;;;;;;;534.40;55.88;;;;;;;6.42;100.00;100487.09;6373948;27;20455;-81
2021/12/31 13:40:49;;;;;;;541.92;47.60;;;;;;;6.38;100.00;100480.31;6356661;27;20494;-80
2021/12/31 13:44:01;;;;;;;548.88;47.90;;;;;;;6.49;100.00;100481.66;6374719;27;20088;-81
2021/12/31 13:47:13;;;;;;;727.92;53.53;;;;;;;6.43;100.00;100473.19;6374960;27;20491;-81
2021/12/31 13:50:15;;;;;;;746.20;53.03;;;;;;;6.44;100.00;100467.13;6373528;27;20043;-81
2021/12/31 13:53:21;;;;;;;634.00;55.95;;;;;;;6.37;100.00;100470.00;6374766;27;20039;-80